createdAt,value
2022-09-06T00:01:38.739Z,154.73
2022-09-06T00:04:05.681Z,130.20
2022-09-06T00:06:32.486Z,130.20
2022-09-06T00:08:59.749Z,115.65
2022-09-06T00:11:26.926Z,75.40
2022-09-06T00:13:53.786Z,55.05
2022-09-06T00:16:27.381Z,129.77
2022-09-06T00:18:57.167Z,197.55
2022-09-06T00:21:29.283Z,192.35
2022-09-06T00:23:56.403Z,179.68
2022-09-06T00:26:24.006Z,180.13
2022-09-06T00:28:50.856Z,191.53
2022-09-06T00:31:22.806Z,164.27
2022-09-06T00:33:50.645Z,31.63
2022-09-06T00:36:18.565Z,49.70
2022-09-06T00:38:45.475Z,25.17
2022-09-06T00:41:15.373Z,38.35
2022-09-06T00:43:42.564Z,53.88
2022-09-06T00:46:13.620Z,65.78
2022-09-06T00:48:41.507Z,44.97
2022-09-06T00:51:11.961Z,53.90
2022-09-06T00:53:39.222Z,53.70
2022-09-06T00:56:06.411Z,55.25
2022-09-06T00:58:35.103Z,55.10
2022-09-06T01:01:01.976Z,51.95
2022-09-06T01:03:28.734Z,44.17
2022-09-06T01:06:01.421Z,43.20
2022-09-06T01:08:47.063Z,57.25
2022-09-06T01:11:38.966Z,79.65
2022-09-06T01:14:18.231Z,59.73
2022-09-06T01:16:50.826Z,60.97
2022-09-06T01:19:44.055Z,91.93
2022-09-06T01:22:17.003Z,183.57
2022-09-06T01:24:52.741Z,182.73
2022-09-06T01:27:46.997Z,195.30
2022-09-06T01:30:16.782Z,171.88
2022-09-06T01:33:16.202Z,187.68
2022-09-06T01:36:02.939Z,108.93
2022-09-06T01:38:30.012Z,96.07
2022-09-06T01:40:56.960Z,103.28
2022-09-06T01:43:33.107Z,85.15
2022-09-06T01:46:27.639Z,76.43
2022-09-06T01:49:13.236Z,80.07
2022-09-06T01:52:06.754Z,105.53
2022-09-06T01:54:51.689Z,124.23
2022-09-06T01:57:39.680Z,127.38
2022-09-06T02:00:11.791Z,95.28
2022-09-06T02:02:58.328Z,112.67
2022-09-06T02:05:37.467Z,118.17
2022-09-06T02:08:11.222Z,180.70
2022-09-06T02:10:49.684Z,184.32
2022-09-06T02:13:19.754Z,130.07
2022-09-06T02:15:54.387Z,131.23
2022-09-06T02:18:52.139Z,140.23
2022-09-06T02:21:25.951Z,128.07
2022-09-06T02:23:55.862Z,141.88
2022-09-06T02:26:27.047Z,150.98
2022-09-06T02:28:54.419Z,163.23
2022-09-06T02:31:29.858Z,149.40
2022-09-06T02:33:57.146Z,157.60
2022-09-06T02:36:24.531Z,146.02
2022-09-06T02:38:51.598Z,135.23
2022-09-06T02:41:22.629Z,158.02
2022-09-06T02:43:49.488Z,141.97
2022-09-06T02:46:16.343Z,134.32
2022-09-06T02:48:43.200Z,128.43
2022-09-06T02:51:09.939Z,148.00
2022-09-06T02:53:37.624Z,133.93
2022-09-06T02:56:05.010Z,152.83
2022-09-06T02:58:31.898Z,142.52
2022-09-06T03:00:58.994Z,142.63
2022-09-06T03:03:27.401Z,148.35
2022-09-06T03:05:54.806Z,130.82
2022-09-06T03:08:25.539Z,155.55
2022-09-06T03:10:56.803Z,135.80
2022-09-06T03:13:24.710Z,132.77
2022-09-06T03:15:53.248Z,133.82
2022-09-06T03:18:20.477Z,132.90
2022-09-06T03:20:50.067Z,123.30
2022-09-06T03:23:18.398Z,147.77
2022-09-06T03:25:45.213Z,141.45
2022-09-06T03:28:12.816Z,122.63
2022-09-06T03:30:40.158Z,148.63
2022-09-06T03:33:07.285Z,135.13
2022-09-06T03:35:34.054Z,132.50
2022-09-06T03:38:00.824Z,147.50
2022-09-06T03:40:27.526Z,109.05
2022-09-06T03:42:54.412Z,137.80
2022-09-06T03:45:21.197Z,110.47
2022-09-06T03:47:48.061Z,132.55
2022-09-06T03:50:14.946Z,121.93
2022-09-06T03:52:41.671Z,121.03
2022-09-06T04:06:49.733Z,164.40
2022-09-06T04:09:16.796Z,154.65
2022-09-06T04:11:45.105Z,134.82
2022-09-06T04:14:12.286Z,139.05
2022-09-06T04:16:39.144Z,151.90
2022-09-06T04:19:05.987Z,125.00
2022-09-06T04:21:33.375Z,161.30
2022-09-06T04:24:00.182Z,164.23
2022-09-06T04:26:26.942Z,159.98
2022-09-06T04:28:53.710Z,65.00
2022-09-06T04:31:20.458Z,79.57
2022-09-06T04:33:47.467Z,59.70
2022-09-06T04:36:14.245Z,76.50
2022-09-06T04:38:43.513Z,84.72
2022-09-06T04:41:12.992Z,129.48
2022-09-06T04:43:39.848Z,127.47
2022-09-06T04:46:24.897Z,139.23
2022-09-06T04:48:53.099Z,153.13
2022-09-06T04:51:20.688Z,145.30
2022-09-06T04:53:48.401Z,133.05
2022-09-06T04:56:18.274Z,88.03
2022-09-06T04:58:46.659Z,62.92
2022-09-06T05:01:14.013Z,63.03
2022-09-06T05:03:41.083Z,80.68
2022-09-06T05:06:22.217Z,88.82
2022-09-06T05:08:49.119Z,64.18
2022-09-06T05:11:17.586Z,73.22
2022-09-06T05:13:46.181Z,88.43
2022-09-06T05:16:13.085Z,62.15
2022-09-06T05:18:39.915Z,87.55
2022-09-06T05:21:07.570Z,75.65
2022-09-06T05:23:34.689Z,93.55
2022-09-06T05:26:01.689Z,72.97
2022-09-06T05:28:28.664Z,87.75
2022-09-06T05:31:23.520Z,74.93
2022-09-06T05:33:52.063Z,80.25
2022-09-06T05:36:18.820Z,68.95
2022-09-06T05:38:45.620Z,59.67
2022-09-06T05:41:12.380Z,78.65
2022-09-06T05:43:39.227Z,81.80
2022-09-06T05:46:06.600Z,87.45
2022-09-06T05:48:36.967Z,69.70
2022-09-06T05:51:09.706Z,84.50
2022-09-06T05:53:42.554Z,78.20
2022-09-06T05:56:11.886Z,76.72
2022-09-06T05:58:40.229Z,82.85
2022-09-06T06:01:23.792Z,85.13
2022-09-06T06:03:56.954Z,90.40
2022-09-06T06:06:24.788Z,84.97
2022-09-06T06:08:52.060Z,71.85
2022-09-06T06:11:19.480Z,36.37
2022-09-06T06:13:46.633Z,53.00
2022-09-06T06:16:16.176Z,51.42
2022-09-06T06:18:46.752Z,65.40
2022-09-06T06:21:23.262Z,46.42
2022-09-06T06:23:52.707Z,38.55
2022-09-06T06:26:20.097Z,25.17
2022-09-06T06:28:47.050Z,55.97
2022-09-06T06:31:14.579Z,31.63
2022-09-06T06:33:42.604Z,42.03
2022-09-06T06:36:15.570Z,39.90
2022-09-06T06:38:45.291Z,27.97
2022-09-06T06:41:14.428Z,25.08
2022-09-06T06:43:41.327Z,7.03
2022-09-06T06:46:13.939Z,7.23
2022-09-06T06:48:42.026Z,9.03
2022-09-06T06:51:15.404Z,16.25
2022-09-06T06:53:43.551Z,37.63
2022-09-06T06:56:33.729Z,32.60
2022-09-06T06:59:02.728Z,24.65
2022-09-06T07:01:31.179Z,22.35
2022-09-06T07:03:58.255Z,38.08
2022-09-06T07:09:18.626Z,25.07
2022-09-06T07:11:46.235Z,23.90
2022-09-06T07:14:13.037Z,33.08
2022-09-06T07:16:39.897Z,30.92
2022-09-06T07:19:07.120Z,40.83
2022-09-06T07:21:37.158Z,36.13
2022-09-06T07:24:08.418Z,31.97
2022-09-06T07:26:38.187Z,38.03
2022-09-06T07:29:06.288Z,43.10
2022-09-06T07:34:21.925Z,43.95
2022-09-06T07:36:49.494Z,43.08
2022-09-06T07:39:16.234Z,47.22
2022-09-06T07:41:43.118Z,36.10
2022-09-06T07:44:10.268Z,30.00
2022-09-06T07:46:37.507Z,47.58
2022-09-06T07:49:05.410Z,40.60
2022-09-06T07:51:32.674Z,39.33
2022-09-06T07:54:34.644Z,35.70
2022-09-06T07:56:48.313Z,35.70
2022-09-06T07:59:15.279Z,51.00
2022-09-06T08:01:42.508Z,35.88
2022-09-06T08:04:12.750Z,33.03
2022-09-06T08:09:28.355Z,31.67
2022-09-06T08:11:55.084Z,34.13
2022-09-06T08:14:21.913Z,29.30
2022-09-06T08:16:50.155Z,39.58
2022-09-06T08:19:18.235Z,37.00
2022-09-06T08:21:45.055Z,38.33
2022-09-06T08:24:11.826Z,38.30
2022-09-06T08:26:40.439Z,42.08
2022-09-06T08:29:08.833Z,29.02
2022-09-06T08:31:38.334Z,27.60
2022-09-06T08:34:05.746Z,40.20
2022-09-06T08:36:33.194Z,32.63
2022-09-06T08:39:01.881Z,43.35
2022-09-06T08:41:40.448Z,37.95
2022-09-06T08:47:22.438Z,47.88
2022-09-06T08:50:01.170Z,89.90
2022-09-06T08:53:16.795Z,120.35
2022-09-06T08:56:04.286Z,79.65
2022-09-06T08:58:36.822Z,58.50
2022-09-06T09:01:12.523Z,66.35
2022-09-06T09:03:42.344Z,75.82
2022-09-06T09:06:10.294Z,89.20
2022-09-06T09:08:40.002Z,78.70
2022-09-06T09:11:12.011Z,94.43
2022-09-06T09:13:47.591Z,87.38
2022-09-06T09:16:18.171Z,84.95
2022-09-06T09:18:49.089Z,98.50
2022-09-06T09:21:20.724Z,94.97
2022-09-06T09:23:54.396Z,91.50
2022-09-06T09:26:24.105Z,111.38
2022-09-06T09:29:03.841Z,92.32
2022-09-06T09:31:42.346Z,143.98
2022-09-06T09:34:14.687Z,152.45
2022-09-06T09:39:36.640Z,180.35
2022-09-06T09:42:03.727Z,157.85
2022-09-06T09:44:30.706Z,167.50
2022-09-06T09:46:57.550Z,205.57
2022-09-06T09:49:24.948Z,178.87
2022-09-06T09:52:12.892Z,195.07
2022-09-06T09:54:44.824Z,209.03
2022-09-06T09:57:17.312Z,194.88
2022-09-06T09:59:44.528Z,190.90
2022-09-06T10:02:30.546Z,188.18
2022-09-06T10:05:09.256Z,258.10
2022-09-06T10:07:44.274Z,278.27
2022-09-06T10:10:20.988Z,200.35
2022-09-06T10:12:48.212Z,210.13
2022-09-06T10:15:38.427Z,211.37
2022-09-06T10:18:05.542Z,214.07
2022-09-06T10:20:39.595Z,229.63
2022-09-06T10:26:09.715Z,246.73
2022-09-06T10:28:45.323Z,229.23
2022-09-06T10:31:43.355Z,267.50
2022-09-06T10:34:36.791Z,284.13
2022-09-06T10:37:26.271Z,239.67
2022-09-06T10:40:02.860Z,292.63
2022-09-06T10:42:30.249Z,292.08
2022-09-06T10:45:36.089Z,280.50
2022-09-06T10:48:25.873Z,299.15
2022-09-06T10:51:13.615Z,178.32
2022-09-06T10:53:44.115Z,167.00
2022-09-06T10:56:32.477Z,174.10
2022-09-06T11:02:16.660Z,191.20
2022-09-06T11:07:40.207Z,190.73
2022-09-06T11:10:18.774Z,218.07
2022-09-06T11:13:03.033Z,185.70
2022-09-06T11:15:36.127Z,208.60
2022-09-06T11:18:21.035Z,195.57
2022-09-06T11:21:25.263Z,187.40
2022-09-06T11:24:04.931Z,206.18
2022-09-06T11:26:58.734Z,204.45
2022-09-06T11:29:30.878Z,204.23
2022-09-06T11:32:17.090Z,220.23
2022-09-06T11:35:01.129Z,232.15
2022-09-06T11:37:33.358Z,234.73
2022-09-06T11:40:32.622Z,201.45
2022-09-06T11:43:03.068Z,209.32
2022-09-06T11:45:43.713Z,250.23
2022-09-06T11:48:26.516Z,279.90
2022-09-06T11:50:54.328Z,286.73
2022-09-06T11:53:31.767Z,316.13
2022-09-06T11:56:02.629Z,280.15
2022-09-06T11:58:57.634Z,248.68
2022-09-06T12:01:24.937Z,262.08
2022-09-06T12:04:09.527Z,224.43
2022-09-06T12:06:41.551Z,236.88
2022-09-06T12:09:46.139Z,293.15
2022-09-06T12:12:44.327Z,294.88
2022-09-06T12:15:26.254Z,465.33
2022-09-06T12:17:53.409Z,484.85
2022-09-06T12:20:51.019Z,490.17
2022-09-06T12:23:41.676Z,549.72
2022-09-06T12:26:10.332Z,625.33
2022-09-06T12:28:49.624Z,450.45
2022-09-06T12:31:23.850Z,444.38
2022-09-06T12:33:52.386Z,649.88
2022-09-06T12:36:33.146Z,355.80
2022-09-06T12:39:04.807Z,392.63
2022-09-06T12:41:41.742Z,421.38
2022-09-06T12:44:11.184Z,433.92
2022-09-06T12:46:39.889Z,419.23
2022-09-06T12:49:10.084Z,337.77
2022-09-06T12:51:39.834Z,330.88
2022-09-06T12:54:22.627Z,305.60
2022-09-06T12:56:51.689Z,348.23
2022-09-06T12:59:25.060Z,267.13
2022-09-06T13:02:00.379Z,308.43
2022-09-06T13:04:49.896Z,390.08
2022-09-06T13:07:20.400Z,392.58
2022-09-06T13:09:50.920Z,398.30
2022-09-06T13:12:33.244Z,422.88
2022-09-06T13:15:17.762Z,435.40
2022-09-06T13:17:46.335Z,309.38
2022-09-06T13:20:29.588Z,305.23
2022-09-06T13:23:12.347Z,316.55
2022-09-06T13:25:53.570Z,318.13
2022-09-06T13:28:38.818Z,319.75
2022-09-06T13:31:20.581Z,305.63
2022-09-06T13:33:59.821Z,306.05
2022-09-06T13:36:30.943Z,265.20
2022-09-06T13:38:59.605Z,233.75
2022-09-06T13:41:26.784Z,219.48
2022-09-06T13:44:06.049Z,257.42
2022-09-06T13:46:33.810Z,290.87
2022-09-06T13:49:01.141Z,312.33
2022-09-06T13:51:29.739Z,295.77
2022-09-06T13:54:08.927Z,291.40
2022-09-06T13:56:36.264Z,298.85
2022-09-06T13:59:04.149Z,295.70
2022-09-06T14:01:32.926Z,286.88
2022-09-06T14:04:00.268Z,273.60
2022-09-06T14:06:27.903Z,278.90
2022-09-06T14:09:06.745Z,283.05
2022-09-06T14:11:35.214Z,276.92
2022-09-06T14:14:02.624Z,201.75
2022-09-06T14:16:30.106Z,200.70
2022-09-06T14:18:57.502Z,216.60
2022-09-06T14:21:24.765Z,208.82
2022-09-06T14:23:52.563Z,207.32
2022-09-06T14:26:21.662Z,223.50
2022-09-06T14:28:48.837Z,188.37
2022-09-06T14:31:21.365Z,230.88
2022-09-06T14:33:48.910Z,217.50
2022-09-06T14:36:19.008Z,211.68
2022-09-06T14:38:46.396Z,180.18
2022-09-06T14:41:14.834Z,180.40
2022-09-06T14:43:43.307Z,159.05
2022-09-06T14:46:13.692Z,148.88
2022-09-06T14:48:42.536Z,148.80
2022-09-06T14:51:12.851Z,148.27
2022-09-06T14:53:41.486Z,143.10
2022-09-06T14:56:10.484Z,162.38
2022-09-06T14:58:38.755Z,166.20
2022-09-06T15:01:13.102Z,170.65
2022-09-06T15:03:46.719Z,162.82
2022-09-06T15:06:14.417Z,167.35
2022-09-06T15:08:42.909Z,155.80
2022-09-06T15:11:11.118Z,167.32
2022-09-06T15:13:40.161Z,169.38
2022-09-06T15:16:08.519Z,164.70
2022-09-06T15:18:36.459Z,162.23
2022-09-06T15:21:14.342Z,158.52
2022-09-06T15:23:42.951Z,166.35
2022-09-06T15:26:11.989Z,172.32
2022-09-06T15:28:39.674Z,144.88
2022-09-06T15:31:07.443Z,167.07
2022-09-06T15:33:37.020Z,166.57
2022-09-06T15:36:08.274Z,164.00
2022-09-06T15:38:41.411Z,156.90
2022-09-06T15:41:12.867Z,155.05
2022-09-06T15:43:42.206Z,147.30
2022-09-06T15:46:09.904Z,151.73
2022-09-06T15:48:41.451Z,141.35
2022-09-06T15:51:08.845Z,166.10
2022-09-06T15:53:36.550Z,190.18
2022-09-06T15:56:04.379Z,200.88
2022-09-06T15:58:32.246Z,166.75
2022-09-06T16:01:07.964Z,217.57
2022-09-06T16:03:49.739Z,231.18
2022-09-06T16:06:26.234Z,191.95
2022-09-06T16:09:00.267Z,191.35
2022-09-06T16:11:28.398Z,295.08
2022-09-06T16:13:56.177Z,298.73
2022-09-06T16:16:23.657Z,71.80
2022-09-06T16:18:52.253Z,107.60
2022-09-06T16:21:24.375Z,102.35
2022-09-06T16:23:54.254Z,130.73
2022-09-06T16:26:23.099Z,266.50
2022-09-06T16:28:51.521Z,149.00
2022-09-06T16:31:19.551Z,160.18
2022-09-06T16:33:48.676Z,226.50
2022-09-06T16:36:15.894Z,172.15
2022-09-06T16:38:43.623Z,166.27
2022-09-06T16:41:41.136Z,181.65
2022-09-06T16:44:09.747Z,159.55
2022-09-06T16:46:36.842Z,170.80
2022-09-06T16:49:04.475Z,146.93
2022-09-06T16:51:31.772Z,156.25
2022-09-06T16:53:59.547Z,141.00
2022-09-06T16:56:29.298Z,158.05
2022-09-06T16:58:58.568Z,180.35
2022-09-06T17:01:27.012Z,158.27
2022-09-06T17:03:54.262Z,194.07
2022-09-06T17:06:22.120Z,205.18
2022-09-06T17:08:49.534Z,127.68
2022-09-06T17:11:20.056Z,181.75
2022-09-06T17:13:48.809Z,152.77
2022-09-06T17:16:35.286Z,180.10
2022-09-06T17:19:03.122Z,187.82
2022-09-06T17:21:30.799Z,168.95
2022-09-06T17:24:02.974Z,169.52
2022-09-06T17:26:30.903Z,187.38
2022-09-06T17:28:57.978Z,182.07
2022-09-06T17:31:26.221Z,199.53
2022-09-06T17:33:53.980Z,141.07
2022-09-06T17:36:26.568Z,201.63
2022-09-06T17:39:06.989Z,206.02
2022-09-06T17:41:38.672Z,208.82
2022-09-06T17:44:07.630Z,211.57
2022-09-06T17:46:34.834Z,209.38
2022-09-06T17:49:01.886Z,198.65
2022-09-06T17:51:29.249Z,208.82
2022-09-06T17:53:56.835Z,231.45
2022-09-06T17:56:24.631Z,204.48
2022-09-06T17:58:56.096Z,155.73
2022-09-06T18:01:24.490Z,159.40
2022-09-06T18:03:52.087Z,165.77
2022-09-06T18:06:25.111Z,147.45
2022-09-06T18:08:54.434Z,146.38
2022-09-06T18:11:27.250Z,163.32
2022-09-06T18:13:56.571Z,151.38
2022-09-06T18:16:23.902Z,108.15
2022-09-06T18:18:53.228Z,140.90
2022-09-06T18:21:20.916Z,134.27
2022-09-06T18:23:47.864Z,108.40
2022-09-06T18:26:15.193Z,103.20
2022-09-06T18:28:42.098Z,135.68
2022-09-06T18:31:12.641Z,140.03
2022-09-06T18:33:40.609Z,120.13
2022-09-06T18:36:08.892Z,129.43
2022-09-06T18:38:36.591Z,129.63
2022-09-06T18:41:06.395Z,103.18
2022-09-06T18:43:41.654Z,98.57
2022-09-06T18:46:12.606Z,115.50
2022-09-06T18:48:40.597Z,105.70
2022-09-06T18:51:11.493Z,116.65
2022-09-06T18:53:43.990Z,116.70
2022-09-06T18:56:13.379Z,111.25
2022-09-06T18:58:40.866Z,92.80
2022-09-06T19:01:11.669Z,82.90
2022-09-06T19:03:40.283Z,104.43
2022-09-06T19:06:10.377Z,106.97
2022-09-06T19:08:37.685Z,89.68
2022-09-06T19:11:10.323Z,81.93
2022-09-06T19:13:39.348Z,85.18
2022-09-06T19:16:07.827Z,78.70
2022-09-06T19:18:36.078Z,63.22
2022-09-06T19:21:09.292Z,72.18
2022-09-06T19:23:38.913Z,63.15
2022-09-06T19:26:07.568Z,63.33
2022-09-06T19:28:35.588Z,62.60
2022-09-06T19:31:18.522Z,79.50
2022-09-06T19:33:48.365Z,89.30
2022-09-06T19:36:16.595Z,102.13
2022-09-06T19:41:31.534Z,96.53
2022-09-06T19:43:59.226Z,102.45
2022-09-06T19:46:27.502Z,65.47
2022-09-06T19:48:56.108Z,39.15
2022-09-06T19:51:24.228Z,37.35
2022-09-06T19:53:53.389Z,38.40
2022-09-06T19:56:26.867Z,62.35
2022-09-06T19:58:58.483Z,55.47
2022-09-06T20:01:29.119Z,60.20
2022-09-06T20:03:57.210Z,56.45
2022-09-06T20:06:24.513Z,48.40
2022-09-06T20:08:53.262Z,48.03
2022-09-06T20:11:22.307Z,95.57
2022-09-06T20:13:49.774Z,84.43
2022-09-06T20:16:20.260Z,94.57
2022-09-06T20:18:48.986Z,110.82
2022-09-06T20:21:18.390Z,89.80
2022-09-06T20:23:53.968Z,118.22
2022-09-06T20:26:23.684Z,134.77
2022-09-06T20:29:01.284Z,140.15
2022-09-06T20:31:30.003Z,99.30
2022-09-06T20:33:59.246Z,119.00
2022-09-06T20:36:26.758Z,127.97
2022-09-06T20:38:54.088Z,128.27
2022-09-06T20:41:26.140Z,139.55
2022-09-06T20:43:55.825Z,130.30
2022-09-06T20:46:24.877Z,168.77
2022-09-06T20:48:52.508Z,197.52
2022-09-06T20:51:22.633Z,162.07
2022-09-06T20:53:55.118Z,163.50
2022-09-06T20:56:24.879Z,202.13
2022-09-06T20:58:54.529Z,201.27
2022-09-06T21:01:24.985Z,199.00
2022-09-06T21:03:57.976Z,168.48
2022-09-06T21:06:26.334Z,186.15
2022-09-06T21:08:55.138Z,204.70
2022-09-06T21:11:22.709Z,180.55
2022-09-06T21:13:55.687Z,174.77
2022-09-06T21:16:25.060Z,161.70
2022-09-06T21:18:54.379Z,151.00
2022-09-06T21:21:22.335Z,177.20
2022-09-06T21:23:49.579Z,207.47
2022-09-06T21:26:17.083Z,256.08
2022-09-06T21:28:45.542Z,319.38
2022-09-06T21:31:13.548Z,380.90
2022-09-06T21:33:54.939Z,1196.40
2022-09-06T21:36:24.181Z,1084.65
2022-09-06T21:38:55.566Z,421.27
2022-09-06T21:41:23.528Z,256.30
2022-09-06T21:43:58.288Z,223.00
2022-09-06T21:46:32.658Z,228.48
2022-09-06T21:49:04.182Z,205.07
2022-09-06T21:51:32.378Z,194.18
2022-09-06T21:53:59.744Z,181.13
2022-09-06T21:56:26.842Z,144.10
2022-09-06T21:58:55.675Z,121.23
2022-09-06T22:01:34.799Z,123.70
2022-09-06T22:04:02.203Z,135.63
2022-09-06T22:06:31.362Z,131.63
2022-09-06T22:09:00.519Z,98.90
2022-09-06T22:11:30.812Z,116.63
2022-09-06T22:14:00.008Z,135.32
2022-09-06T22:16:29.305Z,151.23
2022-09-06T22:18:56.375Z,121.15
2022-09-06T22:21:23.699Z,146.63
2022-09-06T22:23:51.537Z,138.98
2022-09-06T22:26:19.169Z,125.60
2022-09-06T22:28:47.598Z,125.53
2022-09-06T22:31:14.585Z,128.15
2022-09-06T22:33:41.494Z,123.93
2022-09-06T22:36:10.254Z,103.35
2022-09-06T22:38:37.471Z,120.75
2022-09-06T22:41:04.901Z,102.88
2022-09-06T22:43:32.218Z,105.53
2022-09-06T22:46:07.020Z,116.67
2022-09-06T22:48:35.371Z,119.75
2022-09-06T22:51:03.860Z,104.07
2022-09-06T22:53:31.688Z,72.60
2022-09-06T22:55:58.807Z,88.97
2022-09-06T22:58:29.591Z,94.13
2022-09-06T23:01:04.505Z,80.22
2022-09-06T23:03:31.450Z,99.60
2022-09-06T23:06:02.591Z,87.05
2022-09-06T23:08:30.359Z,88.82
2022-09-06T23:10:57.242Z,104.10
2022-09-06T23:13:25.115Z,93.18
2022-09-06T23:15:52.447Z,95.85
2022-09-06T23:18:19.470Z,94.60
2022-09-06T23:20:46.250Z,118.47
2022-09-06T23:23:13.670Z,105.18
2022-09-06T23:25:40.685Z,116.50
2022-09-06T23:28:07.592Z,111.55
2022-09-06T23:30:37.752Z,117.20
2022-09-06T23:33:04.800Z,93.43
2022-09-06T23:35:31.594Z,94.10
2022-09-06T23:37:58.566Z,105.07
2022-09-06T23:40:25.368Z,120.40
2022-09-06T23:42:52.180Z,113.28
2022-09-06T23:45:19.381Z,111.30
2022-09-06T23:47:46.720Z,97.03
2022-09-06T23:50:13.542Z,111.78
2022-09-06T23:52:41.121Z,126.37
2022-09-06T23:55:09.307Z,108.83
2022-09-06T23:57:36.735Z,107.57
